Northeast Philadelphia Airport
KPNE : now visible

Airfield :











YOU CAN JOIN US ON...

 
LOGIN :

Register | Disclaimer

   EN    FR    IT 

 









Legend :    VFR   Marginal VFR   IFR   Intensive IFR   Very Intensive IFR
Visi :
Ceiling :
>= 8 km
>= 3000ft
5 to 8 km
1000 to 3000 ft
1500m to 5 km
500 to 1000 ft
800 to 1500m
200 to 500 ft
< 800m
< 200 ft
Symbols :   Thunderstorms  Fog  Heavy snow  Heavy precipitations  Wind > 20 kt







- Airport Elevation : 120 ft


KPNE - Northeast Philadelphia

CURRENT METAR :
  • 211333Z 21006KT 10SM BKN021 28/21 A2999 RMK AO2 T02780211

EXPIRED METARs :
  • 211254Z VRB06KT 10SM CLR 27/22 A2999 RMK AO2 SLP154 T02720217
  • 211154Z VRB05KT 10SM CLR 26/22 A3000 RMK AO2 RAB1055E11 SLP159 P0000 60000 T02610217 10267 20244 53005
  • 211054Z 17004KT 10SM CLR 25/22 A3000 RMK AO2 SLP156 T02500217

TAF KPNE
Valid from the 21 at 12:00 until the 22 at 12:00 UTC


211134Z 2112/2212 18003KT P6SM SCT060 BKN120
TEMPO 2112/2113 6SM BR
FM211300 21006KT P6SM VCSH BKN015
FM211600 21008KT P6SM VCSH SCT045
FM212000 21010G16KT P6SM VCSH SCT045
PROB30 2122/2202 4SM TSRA OVC025CB
FM220200 23005KT P6SM BKN100
FM220800 28003KT 6SM BR SCT250
No reported NOTAMs for that airfield.



MET'MAP, your aeronautical weather chart ! - Copyright ORBIFLY December 2007 - Disclaimer

ORBIFLY MET'MAP TEAM :

Programming & Development : Alexandra Zaïnal
Concept & Development : Baudouin d'Aumeries
Co-Development & Prog : Marc-Olivier Méhu
Technical & hardware support : Manuel Goepfert

Contact : metmap@orbifly.com




SOURCES & CREDITS :

   NOAA       Earth
Advisory